»·PEaware :: FFT752 KPHX-KDEN

FFT752 :: KPHX-KDEN

FLIGHT INFORMATION

Flight Status: Arrived
Operator:
Frontier Airlines
More flights by this operator :: More flights under this callsign
Pilot: Daniel O. (11975)
Aircraft: AIRBUS A320
(A320)
More flights by this aircraft type
Origin: KPHX Phoenix Sky Harbor Intl
United States
Destination: KDEN Denver Intl
United States
More flights between these airports :: More routes between these airports
Route: MRBIL1 YOOPR CEZ SHNPS TBARR1
File this flight plan on PilotEdge
Remarks:
Altitude:
(Current/Filed)
33,000ft
Speed:
(Current/Filed)
450kts
Departed: 14-Jul-20 02:52 PM
Arrived: 14-Jul-20 04:06 PM
Distance/Time
Traveled:
522nm/1:14
Distance/Time
To Go:
Arrived

Flight Plot

Page will automatically refresh every two minutes.

Flight plan parsing failed; only flown route is shown


Map Options




Map Legend


Flown Route
Filed Route
Departure Airport
Arrival Airport
Navaid (VOR, NDB)
Fix

Horizontal Profiles

Position Reports

Time Latitude Longitude Heading Altitude Ground
Speed
14-Jul-20 14:29 33.438244 -112.008583 217 1132ft 0kts
14-Jul-20 14:30 33.438244 -112.008583 217 1132ft 0kts
14-Jul-20 14:31 33.438244 -112.008583 217 1132ft 0kts
14-Jul-20 14:32 33.438244 -112.008583 217 1132ft 0kts
14-Jul-20 14:33 33.438244 -112.008583 217 1132ft 0kts
14-Jul-20 14:34 33.438244 -112.008583 217 1132ft 0kts
14-Jul-20 14:35 33.438244 -112.008583 217 1132ft 0kts
14-Jul-20 14:36 33.438244 -112.008583 217 1132ft 0kts
14-Jul-20 14:37 33.438244 -112.008583 217 1132ft 0kts
14-Jul-20 14:38 33.438244 -112.008583 217 1132ft 0kts
14-Jul-20 14:39 33.438244 -112.008583 217 1132ft 0kts
14-Jul-20 14:40 33.438244 -112.008583 217 1132ft 0kts
14-Jul-20 14:41 33.438258 -112.008570 217 1132ft 1kts
14-Jul-20 14:42 33.438738 -112.008134 217 1133ft 2kts
14-Jul-20 14:43 33.439009 -112.007697 273 1133ft 0kts
14-Jul-20 14:44 33.439009 -112.007696 273 1133ft 0kts
14-Jul-20 14:45 33.439009 -112.007696 273 1133ft 0kts
14-Jul-20 14:46 33.439009 -112.007696 273 1133ft 0kts
14-Jul-20 14:47 33.439017 -112.008278 270 1133ft 10kts
14-Jul-20 14:48 33.439012 -112.013372 269 1130ft 17kts
14-Jul-20 14:49 33.439026 -112.020318 270 1124ft 24kts
14-Jul-20 14:50 33.439034 -112.028902 271 1120ft 23kts
14-Jul-20 14:51 33.440866 -112.016851 89 1129ft 160kts
14-Jul-20 14:52 33.438785 -111.951084 94 4157ft 222kts
14-Jul-20 14:53 33.440160 -111.866027 63 6261ft 292kts
14-Jul-20 14:54 33.513909 -111.834666 358 9244ft 309kts
14-Jul-20 14:55 33.605584 -111.836083 357 11113ft 361kts
14-Jul-20 14:56 33.712189 -111.816945 13 12150ft 414kts
14-Jul-20 14:57 33.820767 -111.767556 36 14026ft 429kts
14-Jul-20 14:58 33.916305 -111.679500 36 15860ft 437kts
14-Jul-20 14:59 34.014567 -111.590878 32 17591ft 445kts
14-Jul-20 15:00 34.120166 -111.509872 31 19158ft 453kts
14-Jul-20 15:01 34.221683 -111.431747 31 20628ft 460kts
14-Jul-20 15:02 34.330162 -111.348015 31 22032ft 469kts
14-Jul-20 15:03 34.440939 -111.262248 31 23331ft 478kts
14-Jul-20 15:04 34.553499 -111.174822 31 24588ft 485kts
14-Jul-20 15:05 34.670036 -111.089722 27 25704ft 493kts
14-Jul-20 15:06 34.791990 -111.009821 27 26732ft 501kts
14-Jul-20 15:07 34.914427 -110.929330 27 27885ft 502kts
14-Jul-20 15:08 35.036989 -110.848483 27 29096ft 501kts
14-Jul-20 15:09 35.155046 -110.770341 26 30332ft 499kts
14-Jul-20 15:10 35.278509 -110.688341 26 31555ft 497kts
14-Jul-20 15:11 35.399354 -110.607799 26 32713ft 495kts
14-Jul-20 15:12 35.520354 -110.526877 25 33155ft 492kts
14-Jul-20 15:13 35.640399 -110.446073 28 33156ft 495kts
14-Jul-20 15:14 35.747478 -110.340077 38 33154ft 499kts
14-Jul-20 15:15 35.852138 -110.229810 38 33156ft 499kts
14-Jul-20 15:16 35.957700 -110.118187 38 33155ft 500kts
14-Jul-20 15:17 36.063287 -110.006126 38 33192ft 500kts
14-Jul-20 15:18 36.165670 -109.897070 38 33221ft 500kts
14-Jul-20 15:20 36.270817 -109.784662 38 33217ft 500kts
14-Jul-20 15:21 36.375543 -109.672292 38 33214ft 499kts
14-Jul-20 15:22 36.479939 -109.559858 38 33214ft 498kts
14-Jul-20 15:23 36.584170 -109.447185 38 33187ft 497kts
14-Jul-20 15:24 36.686528 -109.336131 39 33167ft 496kts
14-Jul-20 15:25 36.786830 -109.226910 39 33159ft 496kts
14-Jul-20 15:26 36.888817 -109.115446 39 33152ft 495kts
14-Jul-20 15:27 36.990010 -109.004447 39 33137ft 496kts
14-Jul-20 15:28 37.093305 -108.890715 39 33138ft 496kts
14-Jul-20 15:29 37.193150 -108.780374 39 33155ft 497kts
14-Jul-20 15:30 37.296443 -108.665793 39 33182ft 498kts
14-Jul-20 15:31 37.395750 -108.548196 52 33185ft 501kts
14-Jul-20 15:32 37.470146 -108.400733 57 33191ft 501kts
14-Jul-20 15:33 37.542839 -108.263575 58 33176ft 501kts
14-Jul-20 15:34 37.604198 -108.135921 57 33212ft 501kts
14-Jul-20 15:35 37.670056 -108.001371 57 33275ft 501kts
14-Jul-20 15:36 37.734383 -107.869564 57 33274ft 501kts
14-Jul-20 15:37 37.808057 -107.717929 57 33307ft 501kts
14-Jul-20 15:37 37.869293 -107.591347 57 33344ft 501kts
14-Jul-20 15:39 37.955787 -107.411707 58 33381ft 502kts
14-Jul-20 15:40 38.022078 -107.273354 58 33369ft 503kts
14-Jul-20 15:40 38.080092 -107.151788 58 33364ft 504kts
14-Jul-20 15:42 38.159619 -106.991730 50 33365ft 506kts
14-Jul-20 15:42 38.231921 -106.881934 49 33357ft 506kts
14-Jul-20 15:43 38.319907 -106.747976 49 33391ft 506kts
14-Jul-20 15:44 38.407481 -106.614077 49 33443ft 508kts
14-Jul-20 15:45 38.491373 -106.485289 49 33447ft 508kts
14-Jul-20 15:46 38.582050 -106.345505 49 33440ft 509kts
14-Jul-20 15:47 38.661120 -106.223156 49 33438ft 509kts
14-Jul-20 15:48 38.734261 -106.111502 49 33438ft 509kts
14-Jul-20 15:49 38.821037 -105.978403 49 33311ft 510kts
14-Jul-20 15:50 38.907127 -105.845693 49 32669ft 510kts
14-Jul-20 15:51 38.995452 -105.708454 48 29473ft 516kts
14-Jul-20 15:52 39.085430 -105.568098 48 26102ft 515kts
14-Jul-20 15:53 39.170039 -105.435421 48 23448ft 462kts
14-Jul-20 15:54 39.242370 -105.320426 48 21820ft 380kts
14-Jul-20 15:55 39.321190 -105.240453 29 19646ft 376kts
14-Jul-20 15:56 39.404245 -105.171431 29 17508ft 341kts
14-Jul-20 15:57 39.478341 -105.110074 29 15489ft 341kts
14-Jul-20 15:58 39.548329 -105.052860 29 13527ft 318kts
14-Jul-20 15:59 39.610753 -105.001329 28 11715ft 314kts
14-Jul-20 16:00 39.671834 -104.952228 28 10062ft 299kts
14-Jul-20 16:01 39.736023 -104.902969 29 8319ft 280kts
14-Jul-20 16:02 39.807813 -104.848087 39 7013ft 233kts
14-Jul-20 16:03 39.840471 -104.780809 83 6752ft 179kts
14-Jul-20 16:04 39.840984 -104.727825 93 5494ft 135kts
14-Jul-20 16:05 39.840918 -104.699313 80 5358ft 20kts
14-Jul-20 16:06 39.842019 -104.695957 60 5342ft 6kts
14-Jul-20 16:07 39.844929 -104.692190 40 5317ft 20kts
14-Jul-20 16:08 39.850055 -104.686323 43 5306ft 23kts

Navigation Log

Ident Type
Flight plan parsing failed, navigation log unavailable